sensor_id;sensor_type;location;lat;lon;timestamp;P1;durP1;ratioP1;P2;durP2;ratioP2
6987;SDS011;3534;49.960;8.018;2024-01-16T00:02:15;5.03;;;3.73;;
6987;SDS011;3534;49.960;8.018;2024-01-16T00:04:43;5.10;;;3.23;;
6987;SDS011;3534;49.960;8.018;2024-01-16T00:07:10;8.60;;;3.20;;
6987;SDS011;3534;49.960;8.018;2024-01-16T00:09:37;7.47;;;3.53;;
6987;SDS011;3534;49.960;8.018;2024-01-16T00:12:04;7.60;;;3.07;;
6987;SDS011;3534;49.960;8.018;2024-01-16T00:14:34;5.27;;;3.17;;
6987;SDS011;3534;49.960;8.018;2024-01-16T00:17:01;8.83;;;3.53;;
6987;SDS011;3534;49.960;8.018;2024-01-16T00:19:28;4.53;;;3.20;;
6987;SDS011;3534;49.960;8.018;2024-01-16T00:21:56;3.63;;;3.30;;
6987;SDS011;3534;49.960;8.018;2024-01-16T00:24:22;7.50;;;3.40;;
6987;SDS011;3534;49.960;8.018;2024-01-16T00:26:49;9.20;;;3.10;;
6987;SDS011;3534;49.960;8.018;2024-01-16T00:29:16;6.20;;;3.27;;
6987;SDS011;3534;49.960;8.018;2024-01-16T00:31:43;10.37;;;3.70;;
6987;SDS011;3534;49.960;8.018;2024-01-16T00:34:09;3.73;;;2.80;;
6987;SDS011;3534;49.960;8.018;2024-01-16T00:36:36;7.63;;;3.57;;
6987;SDS011;3534;49.960;8.018;2024-01-16T00:39:04;6.30;;;3.73;;
6987;SDS011;3534;49.960;8.018;2024-01-16T00:41:32;7.67;;;3.07;;
6987;SDS011;3534;49.960;8.018;2024-01-16T00:43:58;5.93;;;2.73;;
6987;SDS011;3534;49.960;8.018;2024-01-16T00:46:25;6.47;;;4.00;;
6987;SDS011;3534;49.960;8.018;2024-01-16T00:48:52;11.33;;;3.40;;
6987;SDS011;3534;49.960;8.018;2024-01-16T00:51:18;5.83;;;3.60;;
6987;SDS011;3534;49.960;8.018;2024-01-16T00:53:45;8.53;;;3.60;;
6987;SDS011;3534;49.960;8.018;2024-01-16T00:56:13;8.37;;;4.00;;
6987;SDS011;3534;49.960;8.018;2024-01-16T00:58:40;4.03;;;3.57;;
6987;SDS011;3534;49.960;8.018;2024-01-16T01:01:06;10.43;;;3.67;;
6987;SDS011;3534;49.960;8.018;2024-01-16T01:03:33;9.30;;;4.83;;
6987;SDS011;3534;49.960;8.018;2024-01-16T01:06:00;7.10;;;3.70;;
6987;SDS011;3534;49.960;8.018;2024-01-16T01:08:27;8.30;;;2.87;;
6987;SDS011;3534;49.960;8.018;2024-01-16T01:10:53;4.63;;;3.37;;
6987;SDS011;3534;49.960;8.018;2024-01-16T01:13:21;16.27;;;4.00;;
6987;SDS011;3534;49.960;8.018;2024-01-16T01:15:50;9.30;;;3.90;;
6987;SDS011;3534;49.960;8.018;2024-01-16T01:18:16;7.67;;;3.67;;
6987;SDS011;3534;49.960;8.018;2024-01-16T01:20:43;16.23;;;4.07;;
6987;SDS011;3534;49.960;8.018;2024-01-16T01:23:10;6.23;;;3.60;;
6987;SDS011;3534;49.960;8.018;2024-01-16T01:25:36;10.57;;;3.90;;
6987;SDS011;3534;49.960;8.018;2024-01-16T01:28:03;7.23;;;3.27;;
6987;SDS011;3534;49.960;8.018;2024-01-16T01:30:31;8.53;;;3.40;;
6987;SDS011;3534;49.960;8.018;2024-01-16T01:32:58;6.47;;;3.53;;
6987;SDS011;3534;49.960;8.018;2024-01-16T01:35:25;6.47;;;3.37;;
6987;SDS011;3534;49.960;8.018;2024-01-16T01:37:52;7.00;;;3.30;;
6987;SDS011;3534;49.960;8.018;2024-01-16T01:40:19;8.40;;;4.07;;
6987;SDS011;3534;49.960;8.018;2024-01-16T01:42:45;8.90;;;3.87;;
6987;SDS011;3534;49.960;8.018;2024-01-16T01:45:12;8.70;;;3.23;;
6987;SDS011;3534;49.960;8.018;2024-01-16T01:47:40;5.40;;;3.27;;
6987;SDS011;3534;49.960;8.018;2024-01-16T01:50:08;4.90;;;3.37;;
6987;SDS011;3534;49.960;8.018;2024-01-16T01:52:35;7.33;;;3.33;;
6987;SDS011;3534;49.960;8.018;2024-01-16T01:55:03;9.47;;;3.23;;
6987;SDS011;3534;49.960;8.018;2024-01-16T01:57:32;7.50;;;3.67;;
6987;SDS011;3534;49.960;8.018;2024-01-16T01:59:59;7.83;;;3.43;;
6987;SDS011;3534;49.960;8.018;2024-01-16T02:02:26;11.23;;;2.63;;
6987;SDS011;3534;49.960;8.018;2024-01-16T02:04:55;7.03;;;4.10;;
6987;SDS011;3534;49.960;8.018;2024-01-16T02:07:22;9.17;;;4.60;;
6987;SDS011;3534;49.960;8.018;2024-01-16T02:09:50;5.37;;;3.00;;
6987;SDS011;3534;49.960;8.018;2024-01-16T02:12:17;6.33;;;3.80;;
6987;SDS011;3534;49.960;8.018;2024-01-16T02:14:44;4.97;;;3.37;;
6987;SDS011;3534;49.960;8.018;2024-01-16T02:17:11;6.23;;;3.60;;
6987;SDS011;3534;49.960;8.018;2024-01-16T02:19:37;5.20;;;3.77;;
6987;SDS011;3534;49.960;8.018;2024-01-16T02:22:06;12.00;;;3.30;;
6987;SDS011;3534;49.960;8.018;2024-01-16T02:24:38;9.17;;;3.70;;
6987;SDS011;3534;49.960;8.018;2024-01-16T02:27:05;9.60;;;4.63;;
6987;SDS011;3534;49.960;8.018;2024-01-16T02:29:32;11.73;;;4.40;;
6987;SDS011;3534;49.960;8.018;2024-01-16T02:32:00;8.60;;;4.33;;
6987;SDS011;3534;49.960;8.018;2024-01-16T02:34:28;6.77;;;3.70;;
6987;SDS011;3534;49.960;8.018;2024-01-16T02:36:55;3.53;;;3.17;;
6987;SDS011;3534;49.960;8.018;2024-01-16T02:39:21;8.80;;;3.37;;
6987;SDS011;3534;49.960;8.018;2024-01-16T02:41:49;6.03;;;3.07;;
6987;SDS011;3534;49.960;8.018;2024-01-16T02:44:16;6.10;;;2.80;;
6987;SDS011;3534;49.960;8.018;2024-01-16T02:46:42;6.97;;;3.53;;
6987;SDS011;3534;49.960;8.018;2024-01-16T02:49:09;8.67;;;3.30;;
6987;SDS011;3534;49.960;8.018;2024-01-16T02:51:36;3.40;;;3.10;;
6987;SDS011;3534;49.960;8.018;2024-01-16T02:54:04;10.00;;;3.10;;
6987;SDS011;3534;49.960;8.018;2024-01-16T02:56:32;6.83;;;3.43;;
6987;SDS011;3534;49.960;8.018;2024-01-16T02:59:01;11.00;;;3.77;;
6987;SDS011;3534;49.960;8.018;2024-01-16T03:01:28;11.23;;;3.17;;
6987;SDS011;3534;49.960;8.018;2024-01-16T03:03:54;2.50;;;2.30;;
6987;SDS011;3534;49.960;8.018;2024-01-16T03:06:21;6.23;;;3.10;;
6987;SDS011;3534;49.960;8.018;2024-01-16T03:08:49;8.30;;;3.00;;
6987;SDS011;3534;49.960;8.018;2024-01-16T03:11:16;5.40;;;2.87;;
6987;SDS011;3534;49.960;8.018;2024-01-16T03:13:43;13.30;;;3.60;;
6987;SDS011;3534;49.960;8.018;2024-01-16T03:16:11;7.77;;;2.90;;
6987;SDS011;3534;49.960;8.018;2024-01-16T03:18:38;5.60;;;3.50;;
6987;SDS011;3534;49.960;8.018;2024-01-16T03:21:05;4.27;;;3.07;;
6987;SDS011;3534;49.960;8.018;2024-01-16T03:23:32;5.27;;;3.50;;
6987;SDS011;3534;49.960;8.018;2024-01-16T03:25:59;10.50;;;3.60;;
6987;SDS011;3534;49.960;8.018;2024-01-16T03:28:25;7.80;;;3.60;;
6987;SDS011;3534;49.960;8.018;2024-01-16T03:30:52;7.60;;;3.43;;
6987;SDS011;3534;49.960;8.018;2024-01-16T03:33:21;5.77;;;3.50;;
6987;SDS011;3534;49.960;8.018;2024-01-16T03:35:47;6.57;;;3.47;;
6987;SDS011;3534;49.960;8.018;2024-01-16T03:38:14;15.10;;;5.10;;
6987;SDS011;3534;49.960;8.018;2024-01-16T03:40:41;9.63;;;5.00;;
6987;SDS011;3534;49.960;8.018;2024-01-16T03:43:08;7.50;;;3.47;;
6987;SDS011;3534;49.960;8.018;2024-01-16T03:45:34;7.63;;;2.80;;
6987;SDS011;3534;49.960;8.018;2024-01-16T03:48:01;6.33;;;3.20;;
6987;SDS011;3534;49.960;8.018;2024-01-16T03:50:30;10.30;;;3.70;;
6987;SDS011;3534;49.960;8.018;2024-01-16T03:52:57;7.07;;;3.10;;
6987;SDS011;3534;49.960;8.018;2024-01-16T03:55:23;16.70;;;3.20;;
6987;SDS011;3534;49.960;8.018;2024-01-16T03:57:50;7.93;;;3.77;;
6987;SDS011;3534;49.960;8.018;2024-01-16T04:00:17;8.57;;;3.20;;
6987;SDS011;3534;49.960;8.018;2024-01-16T04:02:44;6.80;;;3.60;;
6987;SDS011;3534;49.960;8.018;2024-01-16T04:05:11;6.87;;;3.47;;
6987;SDS011;3534;49.960;8.018;2024-01-16T04:07:39;8.90;;;3.40;;
6987;SDS011;3534;49.960;8.018;2024-01-16T04:10:06;7.90;;;3.20;;
6987;SDS011;3534;49.960;8.018;2024-01-16T04:12:33;14.27;;;3.73;;
6987;SDS011;3534;49.960;8.018;2024-01-16T04:15:00;7.10;;;3.43;;
6987;SDS011;3534;49.960;8.018;2024-01-16T04:17:26;3.83;;;3.13;;
6987;SDS011;3534;49.960;8.018;2024-01-16T04:19:53;12.43;;;4.10;;
6987;SDS011;3534;49.960;8.018;2024-01-16T04:22:20;10.17;;;3.93;;
6987;SDS011;3534;49.960;8.018;2024-01-16T04:24:48;6.30;;;3.47;;
6987;SDS011;3534;49.960;8.018;2024-01-16T04:27:14;9.20;;;3.20;;
6987;SDS011;3534;49.960;8.018;2024-01-16T04:29:41;11.70;;;3.57;;
6987;SDS011;3534;49.960;8.018;2024-01-16T04:32:08;11.43;;;3.40;;
6987;SDS011;3534;49.960;8.018;2024-01-16T04:34:35;5.83;;;3.60;;
6987;SDS011;3534;49.960;8.018;2024-01-16T04:37:02;11.70;;;3.70;;
6987;SDS011;3534;49.960;8.018;2024-01-16T04:39:29;8.03;;;2.83;;
6987;SDS011;3534;49.960;8.018;2024-01-16T04:41:57;13.10;;;3.00;;
6987;SDS011;3534;49.960;8.018;2024-01-16T04:44:24;6.23;;;3.07;;
6987;SDS011;3534;49.960;8.018;2024-01-16T04:46:51;6.87;;;3.20;;
6987;SDS011;3534;49.960;8.018;2024-01-16T04:49:17;7.00;;;3.90;;
6987;SDS011;3534;49.960;8.018;2024-01-16T04:51:44;10.33;;;4.37;;
6987;SDS011;3534;49.960;8.018;2024-01-16T04:54:11;10.87;;;4.30;;
6987;SDS011;3534;49.960;8.018;2024-01-16T04:56:38;12.17;;;4.03;;
6987;SDS011;3534;49.960;8.018;2024-01-16T04:59:06;7.67;;;3.37;;
6987;SDS011;3534;49.960;8.018;2024-01-16T05:01:32;10.77;;;5.67;;
6987;SDS011;3534;49.960;8.018;2024-01-16T05:03:59;6.73;;;3.93;;
6987;SDS011;3534;49.960;8.018;2024-01-16T05:06:26;6.80;;;3.80;;
6987;SDS011;3534;49.960;8.018;2024-01-16T05:08:52;6.80;;;3.60;;
6987;SDS011;3534;49.960;8.018;2024-01-16T05:11:19;10.23;;;3.70;;
6987;SDS011;3534;49.960;8.018;2024-01-16T05:13:46;5.83;;;3.30;;
6987;SDS011;3534;49.960;8.018;2024-01-16T05:16:14;8.37;;;3.80;;
6987;SDS011;3534;49.960;8.018;2024-01-16T05:18:41;10.87;;;4.30;;
6987;SDS011;3534;49.960;8.018;2024-01-16T05:21:08;8.10;;;3.90;;
6987;SDS011;3534;49.960;8.018;2024-01-16T05:23:34;5.07;;;3.87;;
6987;SDS011;3534;49.960;8.018;2024-01-16T05:26:02;10.30;;;3.90;;
6987;SDS011;3534;49.960;8.018;2024-01-16T05:28:29;9.43;;;3.50;;
6987;SDS011;3534;49.960;8.018;2024-01-16T05:30:55;7.70;;;3.83;;
6987;SDS011;3534;49.960;8.018;2024-01-16T05:33:24;4.50;;;3.53;;
6987;SDS011;3534;49.960;8.018;2024-01-16T05:35:50;5.20;;;3.30;;
6987;SDS011;3534;49.960;8.018;2024-01-16T05:38:17;12.30;;;3.87;;
6987;SDS011;3534;49.960;8.018;2024-01-16T05:40:44;11.03;;;3.40;;
6987;SDS011;3534;49.960;8.018;2024-01-16T05:43:10;5.60;;;3.93;;
6987;SDS011;3534;49.960;8.018;2024-01-16T05:45:37;9.93;;;3.87;;
6987;SDS011;3534;49.960;8.018;2024-01-16T05:48:04;8.67;;;4.40;;
6987;SDS011;3534;49.960;8.018;2024-01-16T05:50:33;6.20;;;3.73;;
6987;SDS011;3534;49.960;8.018;2024-01-16T05:53:00;10.30;;;4.00;;
6987;SDS011;3534;49.960;8.018;2024-01-16T05:55:27;14.53;;;5.90;;
6987;SDS011;3534;49.960;8.018;2024-01-16T05:57:54;7.20;;;5.07;;
6987;SDS011;3534;49.960;8.018;2024-01-16T06:00:20;12.43;;;5.77;;
6987;SDS011;3534;49.960;8.018;2024-01-16T06:02:48;6.93;;;4.30;;
6987;SDS011;3534;49.960;8.018;2024-01-16T06:05:14;10.73;;;4.80;;
6987;SDS011;3534;49.960;8.018;2024-01-16T06:07:42;9.00;;;4.20;;
6987;SDS011;3534;49.960;8.018;2024-01-16T06:10:11;8.13;;;4.30;;
6987;SDS011;3534;49.960;8.018;2024-01-16T06:12:38;5.13;;;3.93;;
6987;SDS011;3534;49.960;8.018;2024-01-16T06:15:05;7.73;;;4.13;;
6987;SDS011;3534;49.960;8.018;2024-01-16T06:17:32;8.03;;;4.10;;
6987;SDS011;3534;49.960;8.018;2024-01-16T06:19:59;10.40;;;5.00;;
6987;SDS011;3534;49.960;8.018;2024-01-16T06:22:26;6.40;;;4.00;;
6987;SDS011;3534;49.960;8.018;2024-01-16T06:24:54;7.60;;;4.77;;
6987;SDS011;3534;49.960;8.018;2024-01-16T06:27:21;6.67;;;3.60;;
6987;SDS011;3534;49.960;8.018;2024-01-16T06:29:48;8.63;;;3.77;;
6987;SDS011;3534;49.960;8.018;2024-01-16T06:32:16;9.80;;;4.50;;
6987;SDS011;3534;49.960;8.018;2024-01-16T06:34:42;8.23;;;4.57;;
6987;SDS011;3534;49.960;8.018;2024-01-16T06:37:09;12.67;;;4.20;;
6987;SDS011;3534;49.960;8.018;2024-01-16T06:39:36;5.50;;;4.27;;
6987;SDS011;3534;49.960;8.018;2024-01-16T06:42:06;7.80;;;4.77;;
6987;SDS011;3534;49.960;8.018;2024-01-16T06:44:33;8.40;;;4.50;;
6987;SDS011;3534;49.960;8.018;2024-01-16T06:46:59;13.77;;;4.00;;
6987;SDS011;3534;49.960;8.018;2024-01-16T06:49:26;7.80;;;4.60;;
6987;SDS011;3534;49.960;8.018;2024-01-16T06:51:53;6.33;;;4.43;;
6987;SDS011;3534;49.960;8.018;2024-01-16T06:54:19;5.23;;;4.17;;
6987;SDS011;3534;49.960;8.018;2024-01-16T06:56:48;7.43;;;3.83;;
6987;SDS011;3534;49.960;8.018;2024-01-16T06:59:16;8.97;;;4.10;;
6987;SDS011;3534;49.960;8.018;2024-01-16T07:01:44;6.70;;;4.70;;
6987;SDS011;3534;49.960;8.018;2024-01-16T07:04:11;9.10;;;5.07;;
6987;SDS011;3534;49.960;8.018;2024-01-16T07:06:39;11.10;;;4.67;;
6987;SDS011;3534;49.960;8.018;2024-01-16T07:09:05;7.90;;;4.77;;
6987;SDS011;3534;49.960;8.018;2024-01-16T07:11:35;7.87;;;4.80;;
6987;SDS011;3534;49.960;8.018;2024-01-16T07:14:02;9.50;;;5.10;;
6987;SDS011;3534;49.960;8.018;2024-01-16T07:16:30;12.37;;;5.50;;
6987;SDS011;3534;49.960;8.018;2024-01-16T07:18:57;9.13;;;4.60;;
6987;SDS011;3534;49.960;8.018;2024-01-16T07:21:24;7.40;;;4.40;;
6987;SDS011;3534;49.960;8.018;2024-01-16T07:23:51;5.60;;;3.87;;
6987;SDS011;3534;49.960;8.018;2024-01-16T07:26:18;7.90;;;4.53;;
6987;SDS011;3534;49.960;8.018;2024-01-16T07:28:44;9.00;;;4.50;;
6987;SDS011;3534;49.960;8.018;2024-01-16T07:31:12;10.73;;;5.30;;
6987;SDS011;3534;49.960;8.018;2024-01-16T07:33:41;9.83;;;4.33;;
6987;SDS011;3534;49.960;8.018;2024-01-16T07:36:08;10.77;;;4.97;;
6987;SDS011;3534;49.960;8.018;2024-01-16T07:38:35;9.23;;;4.10;;
6987;SDS011;3534;49.960;8.018;2024-01-16T07:41:02;11.10;;;4.20;;
6987;SDS011;3534;49.960;8.018;2024-01-16T07:43:30;9.33;;;5.50;;
6987;SDS011;3534;49.960;8.018;2024-01-16T07:45:57;29.73;;;13.07;;
6987;SDS011;3534;49.960;8.018;2024-01-16T07:48:24;9.20;;;5.30;;
6987;SDS011;3534;49.960;8.018;2024-01-16T07:50:52;5.83;;;4.30;;
6987;SDS011;3534;49.960;8.018;2024-01-16T07:53:19;11.37;;;4.83;;
6987;SDS011;3534;49.960;8.018;2024-01-16T07:55:45;7.77;;;4.00;;
6987;SDS011;3534;49.960;8.018;2024-01-16T07:58:12;15.10;;;4.43;;
6987;SDS011;3534;49.960;8.018;2024-01-16T08:00:40;9.37;;;4.03;;
6987;SDS011;3534;49.960;8.018;2024-01-16T08:03:07;9.13;;;4.60;;
6987;SDS011;3534;49.960;8.018;2024-01-16T08:05:36;5.63;;;4.20;;
6987;SDS011;3534;49.960;8.018;2024-01-16T08:08:04;11.13;;;4.70;;
6987;SDS011;3534;49.960;8.018;2024-01-16T08:10:34;21.90;;;9.93;;
6987;SDS011;3534;49.960;8.018;2024-01-16T08:13:01;23.40;;;9.13;;
6987;SDS011;3534;49.960;8.018;2024-01-16T08:15:28;26.50;;;11.10;;
6987;SDS011;3534;49.960;8.018;2024-01-16T08:17:55;20.23;;;8.73;;
6987;SDS011;3534;49.960;8.018;2024-01-16T08:20:21;18.87;;;9.17;;
6987;SDS011;3534;49.960;8.018;2024-01-16T08:22:48;21.43;;;12.13;;
6987;SDS011;3534;49.960;8.018;2024-01-16T08:25:17;20.00;;;10.77;;
6987;SDS011;3534;49.960;8.018;2024-01-16T08:27:43;20.30;;;9.87;;
6987;SDS011;3534;49.960;8.018;2024-01-16T08:30:10;7.97;;;4.43;;
6987;SDS011;3534;49.960;8.018;2024-01-16T08:32:38;12.27;;;5.63;;
6987;SDS011;3534;49.960;8.018;2024-01-16T08:35:05;11.70;;;6.53;;
6987;SDS011;3534;49.960;8.018;2024-01-16T08:37:33;6.50;;;4.20;;
6987;SDS011;3534;49.960;8.018;2024-01-16T08:40:00;9.47;;;4.10;;
6987;SDS011;3534;49.960;8.018;2024-01-16T08:42:29;12.80;;;4.43;;
6987;SDS011;3534;49.960;8.018;2024-01-16T08:44:56;8.90;;;4.07;;
6987;SDS011;3534;49.960;8.018;2024-01-16T08:47:23;8.03;;;4.83;;
6987;SDS011;3534;49.960;8.018;2024-01-16T08:49:50;10.27;;;4.63;;
6987;SDS011;3534;49.960;8.018;2024-01-16T08:52:17;11.33;;;3.97;;
6987;SDS011;3534;49.960;8.018;2024-01-16T08:54:44;12.30;;;4.40;;
6987;SDS011;3534;49.960;8.018;2024-01-16T08:57:10;10.63;;;4.00;;
6987;SDS011;3534;49.960;8.018;2024-01-16T08:59:39;6.83;;;4.07;;
6987;SDS011;3534;49.960;8.018;2024-01-16T09:02:06;8.10;;;4.27;;
6987;SDS011;3534;49.960;8.018;2024-01-16T09:04:33;6.40;;;4.60;;
6987;SDS011;3534;49.960;8.018;2024-01-16T09:06:59;9.13;;;5.13;;
6987;SDS011;3534;49.960;8.018;2024-01-16T09:09:29;12.63;;;5.20;;
6987;SDS011;3534;49.960;8.018;2024-01-16T09:11:56;10.53;;;5.13;;
6987;SDS011;3534;49.960;8.018;2024-01-16T09:14:24;11.93;;;5.53;;
6987;SDS011;3534;49.960;8.018;2024-01-16T09:16:52;9.60;;;5.60;;
6987;SDS011;3534;49.960;8.018;2024-01-16T09:19:19;11.00;;;4.93;;
6987;SDS011;3534;49.960;8.018;2024-01-16T09:21:46;15.00;;;4.20;;
6987;SDS011;3534;49.960;8.018;2024-01-16T09:24:13;6.40;;;3.70;;
6987;SDS011;3534;49.960;8.018;2024-01-16T09:26:39;15.20;;;4.90;;
6987;SDS011;3534;49.960;8.018;2024-01-16T09:29:07;6.37;;;4.97;;
6987;SDS011;3534;49.960;8.018;2024-01-16T09:31:34;7.67;;;4.60;;
6987;SDS011;3534;49.960;8.018;2024-01-16T09:34:03;13.00;;;4.40;;
6987;SDS011;3534;49.960;8.018;2024-01-16T09:36:30;8.93;;;4.93;;
6987;SDS011;3534;49.960;8.018;2024-01-16T09:38:56;9.77;;;5.63;;
6987;SDS011;3534;49.960;8.018;2024-01-16T09:41:23;8.60;;;4.80;;
6987;SDS011;3534;49.960;8.018;2024-01-16T09:43:51;10.60;;;5.70;;
6987;SDS011;3534;49.960;8.018;2024-01-16T09:46:17;14.43;;;5.93;;
6987;SDS011;3534;49.960;8.018;2024-01-16T09:48:48;13.53;;;5.80;;
6987;SDS011;3534;49.960;8.018;2024-01-16T09:51:21;10.13;;;5.60;;
6987;SDS011;3534;49.960;8.018;2024-01-16T09:53:48;15.90;;;6.13;;
6987;SDS011;3534;49.960;8.018;2024-01-16T09:56:15;11.90;;;6.27;;
6987;SDS011;3534;49.960;8.018;2024-01-16T09:58:43;13.83;;;6.50;;
6987;SDS011;3534;49.960;8.018;2024-01-16T10:01:10;9.97;;;5.63;;
6987;SDS011;3534;49.960;8.018;2024-01-16T10:03:38;27.07;;;5.80;;
6987;SDS011;3534;49.960;8.018;2024-01-16T10:06:06;12.47;;;5.80;;
6987;SDS011;3534;49.960;8.018;2024-01-16T10:08:35;13.53;;;6.60;;
6987;SDS011;3534;49.960;8.018;2024-01-16T10:11:02;14.67;;;6.03;;
6987;SDS011;3534;49.960;8.018;2024-01-16T10:13:29;7.47;;;5.37;;
6987;SDS011;3534;49.960;8.018;2024-01-16T10:15:58;9.60;;;5.73;;
6987;SDS011;3534;49.960;8.018;2024-01-16T10:18:26;8.17;;;6.10;;
6987;SDS011;3534;49.960;8.018;2024-01-16T10:20:54;10.70;;;5.50;;
6987;SDS011;3534;49.960;8.018;2024-01-16T10:23:22;17.23;;;5.83;;
6987;SDS011;3534;49.960;8.018;2024-01-16T10:28:43;14.33;;;5.83;;
6987;SDS011;3534;49.960;8.018;2024-01-16T10:31:10;12.77;;;5.90;;
6987;SDS011;3534;49.960;8.018;2024-01-16T10:33:39;13.07;;;7.03;;
6987;SDS011;3534;49.960;8.018;2024-01-16T10:36:09;9.27;;;5.50;;
6987;SDS011;3534;49.960;8.018;2024-01-16T10:38:36;9.20;;;6.43;;
6987;SDS011;3534;49.960;8.018;2024-01-16T10:41:05;8.57;;;6.53;;
6987;SDS011;3534;49.960;8.018;2024-01-16T10:43:35;11.70;;;6.67;;
6987;SDS011;3534;49.960;8.018;2024-01-16T10:46:11;17.80;;;7.13;;
6987;SDS011;3534;49.960;8.018;2024-01-16T10:48:39;11.67;;;5.93;;
6987;SDS011;3534;49.960;8.018;2024-01-16T10:51:08;7.40;;;5.50;;
6987;SDS011;3534;49.960;8.018;2024-01-16T10:53:37;10.13;;;5.03;;
6987;SDS011;3534;49.960;8.018;2024-01-16T10:56:09;8.07;;;5.27;;
6987;SDS011;3534;49.960;8.018;2024-01-16T10:58:38;7.30;;;4.30;;
6987;SDS011;3534;49.960;8.018;2024-01-16T11:01:07;8.23;;;4.40;;
6987;SDS011;3534;49.960;8.018;2024-01-16T11:03:40;7.87;;;3.90;;
6987;SDS011;3534;49.960;8.018;2024-01-16T11:06:12;8.97;;;4.10;;
6987;SDS011;3534;49.960;8.018;2024-01-16T11:08:41;11.23;;;4.70;;
6987;SDS011;3534;49.960;8.018;2024-01-16T11:11:08;6.53;;;4.47;;
6987;SDS011;3534;49.960;8.018;2024-01-16T11:13:36;8.17;;;4.63;;
6987;SDS011;3534;49.960;8.018;2024-01-16T11:16:05;9.40;;;4.00;;
6987;SDS011;3534;49.960;8.018;2024-01-16T11:18:34;11.20;;;5.00;;
6987;SDS011;3534;49.960;8.018;2024-01-16T11:21:01;23.37;;;5.30;;
6987;SDS011;3534;49.960;8.018;2024-01-16T11:23:30;7.40;;;5.00;;
6987;SDS011;3534;49.960;8.018;2024-01-16T11:25:57;6.27;;;4.30;;
6987;SDS011;3534;49.960;8.018;2024-01-16T11:28:26;12.53;;;5.30;;
6987;SDS011;3534;49.960;8.018;2024-01-16T11:30:54;9.13;;;4.63;;
6987;SDS011;3534;49.960;8.018;2024-01-16T11:39:17;8.40;;;5.23;;
6987;SDS011;3534;49.960;8.018;2024-01-16T11:41:51;7.00;;;3.60;;
6987;SDS011;3534;49.960;8.018;2024-01-16T11:44:39;15.60;;;4.50;;
6987;SDS011;3534;49.960;8.018;2024-01-16T11:47:07;6.33;;;3.33;;
6987;SDS011;3534;49.960;8.018;2024-01-16T11:49:36;9.10;;;3.73;;
6987;SDS011;3534;49.960;8.018;2024-01-16T11:52:01;6.10;;;3.60;;
6987;SDS011;3534;49.960;8.018;2024-01-16T11:54:29;10.13;;;3.03;;
6987;SDS011;3534;49.960;8.018;2024-01-16T11:57:01;7.23;;;3.70;;
6987;SDS011;3534;49.960;8.018;2024-01-16T11:59:58;10.63;;;4.07;;
6987;SDS011;3534;49.960;8.018;2024-01-16T12:02:29;7.00;;;3.17;;
6987;SDS011;3534;49.960;8.018;2024-01-16T12:05:11;8.97;;;3.03;;
6987;SDS011;3534;49.960;8.018;2024-01-16T12:07:45;9.47;;;2.57;;
6987;SDS011;3534;49.960;8.018;2024-01-16T12:10:14;12.63;;;2.87;;
6987;SDS011;3534;49.960;8.018;2024-01-16T12:12:41;4.30;;;2.20;;
6987;SDS011;3534;49.960;8.018;2024-01-16T12:15:12;6.33;;;2.47;;
6987;SDS011;3534;49.960;8.018;2024-01-16T12:17:50;7.47;;;3.00;;
6987;SDS011;3534;49.960;8.018;2024-01-16T12:20:23;5.37;;;2.83;;
6987;SDS011;3534;49.960;8.018;2024-01-16T12:22:54;3.33;;;2.43;;
6987;SDS011;3534;49.960;8.018;2024-01-16T12:25:22;4.67;;;2.53;;
6987;SDS011;3534;49.960;8.018;2024-01-16T12:27:53;8.97;;;3.10;;
6987;SDS011;3534;49.960;8.018;2024-01-16T12:30:23;8.30;;;3.50;;
6987;SDS011;3534;49.960;8.018;2024-01-16T12:32:50;8.43;;;2.90;;
6987;SDS011;3534;49.960;8.018;2024-01-16T12:35:22;12.63;;;3.73;;
6987;SDS011;3534;49.960;8.018;2024-01-16T12:37:59;10.37;;;3.00;;
6987;SDS011;3534;49.960;8.018;2024-01-16T12:40:25;6.97;;;3.33;;
6987;SDS011;3534;49.960;8.018;2024-01-16T12:42:52;6.60;;;3.00;;
6987;SDS011;3534;49.960;8.018;2024-01-16T12:45:19;10.70;;;3.27;;
6987;SDS011;3534;49.960;8.018;2024-01-16T12:47:49;7.37;;;3.07;;
6987;SDS011;3534;49.960;8.018;2024-01-16T12:50:19;5.70;;;2.90;;
6987;SDS011;3534;49.960;8.018;2024-01-16T12:52:47;6.73;;;3.23;;
6987;SDS011;3534;49.960;8.018;2024-01-16T12:55:15;10.97;;;3.73;;
6987;SDS011;3534;49.960;8.018;2024-01-16T12:57:43;4.47;;;2.60;;
6987;SDS011;3534;49.960;8.018;2024-01-16T13:02:54;5.60;;;3.10;;
6987;SDS011;3534;49.960;8.018;2024-01-16T13:05:23;8.67;;;2.80;;
6987;SDS011;3534;49.960;8.018;2024-01-16T13:08:00;10.47;;;3.80;;
6987;SDS011;3534;49.960;8.018;2024-01-16T13:10:28;8.60;;;3.60;;
6987;SDS011;3534;49.960;8.018;2024-01-16T13:13:10;9.07;;;3.10;;
6987;SDS011;3534;49.960;8.018;2024-01-16T13:15:38;7.90;;;2.90;;
6987;SDS011;3534;49.960;8.018;2024-01-16T13:18:05;10.40;;;4.00;;
6987;SDS011;3534;49.960;8.018;2024-01-16T13:20:32;8.80;;;3.00;;
6987;SDS011;3534;49.960;8.018;2024-01-16T13:23:00;10.33;;;3.77;;
6987;SDS011;3534;49.960;8.018;2024-01-16T13:25:28;8.60;;;3.43;;
6987;SDS011;3534;49.960;8.018;2024-01-16T13:27:54;6.13;;;2.80;;
6987;SDS011;3534;49.960;8.018;2024-01-16T13:30:21;6.40;;;2.90;;
6987;SDS011;3534;49.960;8.018;2024-01-16T13:32:49;4.00;;;2.10;;
6987;SDS011;3534;49.960;8.018;2024-01-16T13:35:15;5.80;;;2.60;;
6987;SDS011;3534;49.960;8.018;2024-01-16T13:37:42;5.10;;;2.33;;
6987;SDS011;3534;49.960;8.018;2024-01-16T13:40:10;8.70;;;2.90;;
6987;SDS011;3534;49.960;8.018;2024-01-16T13:42:40;6.50;;;2.63;;
6987;SDS011;3534;49.960;8.018;2024-01-16T13:45:07;6.40;;;3.20;;
6987;SDS011;3534;49.960;8.018;2024-01-16T13:47:35;7.80;;;2.73;;
6987;SDS011;3534;49.960;8.018;2024-01-16T13:50:04;5.00;;;2.83;;
6987;SDS011;3534;49.960;8.018;2024-01-16T13:52:31;9.77;;;2.70;;
6987;SDS011;3534;49.960;8.018;2024-01-16T13:54:58;7.50;;;2.90;;
6987;SDS011;3534;49.960;8.018;2024-01-16T13:57:29;4.70;;;2.80;;
6987;SDS011;3534;49.960;8.018;2024-01-16T13:59:56;7.37;;;2.80;;
6987;SDS011;3534;49.960;8.018;2024-01-16T14:02:23;8.67;;;3.30;;
6987;SDS011;3534;49.960;8.018;2024-01-16T14:04:50;6.83;;;3.37;;
6987;SDS011;3534;49.960;8.018;2024-01-16T14:07:17;6.67;;;3.43;;
6987;SDS011;3534;49.960;8.018;2024-01-16T14:09:44;13.20;;;4.07;;
6987;SDS011;3534;49.960;8.018;2024-01-16T14:12:11;6.60;;;3.10;;
6987;SDS011;3534;49.960;8.018;2024-01-16T14:14:39;12.60;;;4.13;;
6987;SDS011;3534;49.960;8.018;2024-01-16T14:17:06;5.33;;;3.37;;
6987;SDS011;3534;49.960;8.018;2024-01-16T14:19:34;5.23;;;3.63;;
6987;SDS011;3534;49.960;8.018;2024-01-16T14:22:01;9.97;;;3.60;;
6987;SDS011;3534;49.960;8.018;2024-01-16T14:24:28;12.03;;;3.33;;
6987;SDS011;3534;49.960;8.018;2024-01-16T14:26:54;7.00;;;3.50;;
6987;SDS011;3534;49.960;8.018;2024-01-16T14:29:21;8.20;;;3.30;;
6987;SDS011;3534;49.960;8.018;2024-01-16T14:31:50;8.40;;;3.60;;
6987;SDS011;3534;49.960;8.018;2024-01-16T14:34:17;9.80;;;2.57;;
6987;SDS011;3534;49.960;8.018;2024-01-16T14:36:44;10.20;;;2.70;;
6987;SDS011;3534;49.960;8.018;2024-01-16T14:39:11;6.73;;;3.67;;
6987;SDS011;3534;49.960;8.018;2024-01-16T14:41:42;5.33;;;2.60;;
6987;SDS011;3534;49.960;8.018;2024-01-16T14:44:09;5.67;;;2.80;;
6987;SDS011;3534;49.960;8.018;2024-01-16T14:46:36;5.87;;;2.40;;
6987;SDS011;3534;49.960;8.018;2024-01-16T14:49:04;5.50;;;2.50;;
6987;SDS011;3534;49.960;8.018;2024-01-16T14:51:31;6.83;;;2.27;;
6987;SDS011;3534;49.960;8.018;2024-01-16T14:53:57;7.47;;;2.10;;
6987;SDS011;3534;49.960;8.018;2024-01-16T14:56:26;1.83;;;1.70;;
6987;SDS011;3534;49.960;8.018;2024-01-16T14:58:53;4.10;;;2.40;;
6987;SDS011;3534;49.960;8.018;2024-01-16T15:01:20;4.07;;;2.10;;
6987;SDS011;3534;49.960;8.018;2024-01-16T15:03:46;6.07;;;2.10;;
6987;SDS011;3534;49.960;8.018;2024-01-16T15:06:15;3.60;;;1.90;;
6987;SDS011;3534;49.960;8.018;2024-01-16T15:08:42;4.47;;;2.20;;
6987;SDS011;3534;49.960;8.018;2024-01-16T15:11:09;4.90;;;2.80;;
6987;SDS011;3534;49.960;8.018;2024-01-16T15:13:36;8.87;;;4.40;;
6987;SDS011;3534;49.960;8.018;2024-01-16T15:16:03;3.43;;;2.10;;
6987;SDS011;3534;49.960;8.018;2024-01-16T15:18:30;6.13;;;1.97;;
6987;SDS011;3534;49.960;8.018;2024-01-16T15:20:57;10.80;;;5.87;;
6987;SDS011;3534;49.960;8.018;2024-01-16T15:23:25;9.80;;;4.90;;
6987;SDS011;3534;49.960;8.018;2024-01-16T15:25:52;8.30;;;2.70;;